sensor_id;sensor_type;location;lat;lon;timestamp;temperature;humidity
23869;DHT22;12115;47.128;15.422;2022-11-24T00:01:12;3.80;99.90
23869;DHT22;12115;47.128;15.422;2022-11-24T00:03:43;3.80;99.90
23869;DHT22;12115;47.128;15.422;2022-11-24T00:06:12;3.80;99.90
23869;DHT22;12115;47.128;15.422;2022-11-24T00:08:41;3.70;99.90
23869;DHT22;12115;47.128;15.422;2022-11-24T00:11:16;3.70;99.90
23869;DHT22;12115;47.128;15.422;2022-11-24T00:13:44;3.70;99.90
23869;DHT22;12115;47.128;15.422;2022-11-24T00:16:15;3.70;99.90
23869;DHT22;12115;47.128;15.422;2022-11-24T00:18:44;3.70;99.90
23869;DHT22;12115;47.128;15.422;2022-11-24T00:21:12;3.60;99.90
23869;DHT22;12115;47.128;15.422;2022-11-24T00:23:40;3.70;99.90
23869;DHT22;12115;47.128;15.422;2022-11-24T00:28:37;3.50;99.90
23869;DHT22;12115;47.128;15.422;2022-11-24T00:31:14;3.50;99.90
23869;DHT22;12115;47.128;15.422;2022-11-24T00:33:44;3.50;99.90
23869;DHT22;12115;47.128;15.422;2022-11-24T00:36:12;3.50;99.90
23869;DHT22;12115;47.128;15.422;2022-11-24T00:38:39;3.30;99.90
23869;DHT22;12115;47.128;15.422;2022-11-24T00:41:06;3.30;99.90
23869;DHT22;12115;47.128;15.422;2022-11-24T00:43:33;3.40;99.90
23869;DHT22;12115;47.128;15.422;2022-11-24T00:46:00;3.30;99.90
23869;DHT22;12115;47.128;15.422;2022-11-24T00:48:29;3.30;99.90
23869;DHT22;12115;47.128;15.422;2022-11-24T00:50:56;3.30;99.90
23869;DHT22;12115;47.128;15.422;2022-11-24T00:53:24;3.20;99.90
23869;DHT22;12115;47.128;15.422;2022-11-24T00:55:52;3.20;99.90
23869;DHT22;12115;47.128;15.422;2022-11-24T00:58:19;3.20;99.90
23869;DHT22;12115;47.128;15.422;2022-11-24T01:00:46;3.10;99.90
23869;DHT22;12115;47.128;15.422;2022-11-24T01:03:14;3.00;99.90
23869;DHT22;12115;47.128;15.422;2022-11-24T01:05:42;3.00;99.90
23869;DHT22;12115;47.128;15.422;2022-11-24T01:08:09;2.90;99.90
23869;DHT22;12115;47.128;15.422;2022-11-24T01:10:37;2.90;99.90
23869;DHT22;12115;47.128;15.422;2022-11-24T01:13:04;2.90;99.90
23869;DHT22;12115;47.128;15.422;2022-11-24T01:15:34;2.90;99.90
23869;DHT22;12115;47.128;15.422;2022-11-24T01:18:01;2.90;99.90
23869;DHT22;12115;47.128;15.422;2022-11-24T01:20:29;2.80;99.90
23869;DHT22;12115;47.128;15.422;2022-11-24T01:22:56;2.70;99.90
23869;DHT22;12115;47.128;15.422;2022-11-24T01:25:23;2.70;99.90
23869;DHT22;12115;47.128;15.422;2022-11-24T01:27:50;2.70;99.90
23869;DHT22;12115;47.128;15.422;2022-11-24T01:30:17;2.70;99.90
23869;DHT22;12115;47.128;15.422;2022-11-24T01:32:44;2.60;99.90
23869;DHT22;12115;47.128;15.422;2022-11-24T01:35:11;2.60;99.90
23869;DHT22;12115;47.128;15.422;2022-11-24T01:37:38;2.60;99.90
23869;DHT22;12115;47.128;15.422;2022-11-24T01:40:06;2.50;99.90
23869;DHT22;12115;47.128;15.422;2022-11-24T01:42:45;2.50;99.90
23869;DHT22;12115;47.128;15.422;2022-11-24T01:45:32;2.50;99.90
23869;DHT22;12115;47.128;15.422;2022-11-24T01:48:03;2.40;99.90
23869;DHT22;12115;47.128;15.422;2022-11-24T01:50:32;2.30;99.90
23869;DHT22;12115;47.128;15.422;2022-11-24T01:53:01;2.30;99.90
23869;DHT22;12115;47.128;15.422;2022-11-24T01:55:35;2.30;99.90
23869;DHT22;12115;47.128;15.422;2022-11-24T01:58:14;2.20;99.90
23869;DHT22;12115;47.128;15.422;2022-11-24T02:00:43;2.30;99.90
23869;DHT22;12115;47.128;15.422;2022-11-24T02:03:12;2.20;99.90
23869;DHT22;12115;47.128;15.422;2022-11-24T02:06:08;2.20;99.90
23869;DHT22;12115;47.128;15.422;2022-11-24T02:11:14;2.10;99.90
23869;DHT22;12115;47.128;15.422;2022-11-24T02:13:42;2.10;99.90
23869;DHT22;12115;47.128;15.422;2022-11-24T02:16:10;2.10;99.90
23869;DHT22;12115;47.128;15.422;2022-11-24T02:18:38;2.10;99.90
23869;DHT22;12115;47.128;15.422;2022-11-24T02:21:06;2.10;99.90
23869;DHT22;12115;47.128;15.422;2022-11-24T02:29:02;2.10;99.90
23869;DHT22;12115;47.128;15.422;2022-11-24T02:31:29;2.10;99.90
23869;DHT22;12115;47.128;15.422;2022-11-24T02:33:57;2.00;99.90
23869;DHT22;12115;47.128;15.422;2022-11-24T02:36:24;2.00;99.90
23869;DHT22;12115;47.128;15.422;2022-11-24T02:38:51;2.10;99.90
23869;DHT22;12115;47.128;15.422;2022-11-24T02:41:20;2.00;99.90
23869;DHT22;12115;47.128;15.422;2022-11-24T02:43:51;2.10;99.90
23869;DHT22;12115;47.128;15.422;2022-11-24T02:46:18;2.10;99.90
23869;DHT22;12115;47.128;15.422;2022-11-24T02:48:45;2.10;99.90
23869;DHT22;12115;47.128;15.422;2022-11-24T02:51:12;2.10;99.90
23869;DHT22;12115;47.128;15.422;2022-11-24T02:53:39;2.10;99.90
23869;DHT22;12115;47.128;15.422;2022-11-24T02:56:06;2.20;99.90
23869;DHT22;12115;47.128;15.422;2022-11-24T02:58:33;2.20;99.90
23869;DHT22;12115;47.128;15.422;2022-11-24T03:01:00;2.20;99.90
23869;DHT22;12115;47.128;15.422;2022-11-24T03:03:28;2.20;99.90
23869;DHT22;12115;47.128;15.422;2022-11-24T03:05:55;2.20;99.90
23869;DHT22;12115;47.128;15.422;2022-11-24T03:08:22;2.20;99.90
23869;DHT22;12115;47.128;15.422;2022-11-24T03:10:49;2.20;99.90
23869;DHT22;12115;47.128;15.422;2022-11-24T03:13:16;2.20;99.90
23869;DHT22;12115;47.128;15.422;2022-11-24T03:15:43;2.20;99.90
23869;DHT22;12115;47.128;15.422;2022-11-24T03:18:10;2.20;99.90
23869;DHT22;12115;47.128;15.422;2022-11-24T03:20:37;2.20;99.90
23869;DHT22;12115;47.128;15.422;2022-11-24T03:23:04;2.20;99.90
23869;DHT22;12115;47.128;15.422;2022-11-24T03:25:31;2.20;99.90
23869;DHT22;12115;47.128;15.422;2022-11-24T03:27:58;2.20;99.90
23869;DHT22;12115;47.128;15.422;2022-11-24T03:30:25;2.20;99.90
23869;DHT22;12115;47.128;15.422;2022-11-24T03:32:52;2.20;99.90
23869;DHT22;12115;47.128;15.422;2022-11-24T03:35:20;2.10;99.90
23869;DHT22;12115;47.128;15.422;2022-11-24T03:37:48;2.20;99.90
23869;DHT22;12115;47.128;15.422;2022-11-24T03:40:15;2.20;99.90
23869;DHT22;12115;47.128;15.422;2022-11-24T03:42:43;2.20;99.90
23869;DHT22;12115;47.128;15.422;2022-11-24T03:45:11;2.20;99.90
23869;DHT22;12115;47.128;15.422;2022-11-24T03:47:57;2.20;99.90
23869;DHT22;12115;47.128;15.422;2022-11-24T03:50:25;2.20;99.90
23869;DHT22;12115;47.128;15.422;2022-11-24T03:52:52;2.20;99.90
23869;DHT22;12115;47.128;15.422;2022-11-24T03:55:19;2.20;99.90
23869;DHT22;12115;47.128;15.422;2022-11-24T03:57:46;2.20;99.90
23869;DHT22;12115;47.128;15.422;2022-11-24T04:00:14;2.20;99.90
23869;DHT22;12115;47.128;15.422;2022-11-24T04:02:41;2.20;99.90
23869;DHT22;12115;47.128;15.422;2022-11-24T04:05:08;2.20;99.90
23869;DHT22;12115;47.128;15.422;2022-11-24T04:07:35;2.10;99.90
23869;DHT22;12115;47.128;15.422;2022-11-24T04:10:03;2.20;99.90
23869;DHT22;12115;47.128;15.422;2022-11-24T04:12:30;2.20;99.90
23869;DHT22;12115;47.128;15.422;2022-11-24T04:15:15;2.10;99.90
23869;DHT22;12115;47.128;15.422;2022-11-24T04:17:42;2.10;99.90
23869;DHT22;12115;47.128;15.422;2022-11-24T04:20:11;2.10;99.90
23869;DHT22;12115;47.128;15.422;2022-11-24T04:22:38;2.10;99.90
23869;DHT22;12115;47.128;15.422;2022-11-24T04:25:06;2.10;99.90
23869;DHT22;12115;47.128;15.422;2022-11-24T04:27:34;2.10;99.90
23869;DHT22;12115;47.128;15.422;2022-11-24T04:30:02;2.10;99.90
23869;DHT22;12115;47.128;15.422;2022-11-24T04:32:30;2.00;99.90
23869;DHT22;12115;47.128;15.422;2022-11-24T04:34:57;2.10;99.90
23869;DHT22;12115;47.128;15.422;2022-11-24T04:37:24;2.10;99.90
23869;DHT22;12115;47.128;15.422;2022-11-24T04:39:51;2.10;99.90
23869;DHT22;12115;47.128;15.422;2022-11-24T04:42:20;2.00;99.90
23869;DHT22;12115;47.128;15.422;2022-11-24T04:44:47;2.10;99.90
23869;DHT22;12115;47.128;15.422;2022-11-24T04:47:17;2.10;99.90
23869;DHT22;12115;47.128;15.422;2022-11-24T04:49:46;2.10;99.90
23869;DHT22;12115;47.128;15.422;2022-11-24T04:52:19;2.10;99.90
23869;DHT22;12115;47.128;15.422;2022-11-24T04:54:47;2.10;99.90
23869;DHT22;12115;47.128;15.422;2022-11-24T04:57:20;2.10;99.90
23869;DHT22;12115;47.128;15.422;2022-11-24T04:59:48;2.00;99.90
23869;DHT22;12115;47.128;15.422;2022-11-24T05:02:16;2.00;99.90
23869;DHT22;12115;47.128;15.422;2022-11-24T05:04:43;2.10;99.90
23869;DHT22;12115;47.128;15.422;2022-11-24T05:07:14;2.10;99.90
23869;DHT22;12115;47.128;15.422;2022-11-24T05:09:45;2.10;99.90
23869;DHT22;12115;47.128;15.422;2022-11-24T05:12:31;2.10;99.90
23869;DHT22;12115;47.128;15.422;2022-11-24T05:15:00;2.00;99.90
23869;DHT22;12115;47.128;15.422;2022-11-24T05:17:29;2.00;99.90
23869;DHT22;12115;47.128;15.422;2022-11-24T05:19:56;2.00;99.90
23869;DHT22;12115;47.128;15.422;2022-11-24T05:22:24;2.00;99.90
23869;DHT22;12115;47.128;15.422;2022-11-24T05:24:51;2.00;99.90
23869;DHT22;12115;47.128;15.422;2022-11-24T05:27:18;2.10;99.90
23869;DHT22;12115;47.128;15.422;2022-11-24T05:29:45;2.10;99.90
23869;DHT22;12115;47.128;15.422;2022-11-24T05:32:12;2.10;99.90
23869;DHT22;12115;47.128;15.422;2022-11-24T05:34:39;2.10;99.90
23869;DHT22;12115;47.128;15.422;2022-11-24T05:37:06;2.10;99.90
23869;DHT22;12115;47.128;15.422;2022-11-24T05:39:37;2.10;99.90
23869;DHT22;12115;47.128;15.422;2022-11-24T05:42:05;2.10;99.90
23869;DHT22;12115;47.128;15.422;2022-11-24T05:44:52;2.10;99.90
23869;DHT22;12115;47.128;15.422;2022-11-24T05:47:20;2.20;99.90
23869;DHT22;12115;47.128;15.422;2022-11-24T05:49:47;2.10;99.90
23869;DHT22;12115;47.128;15.422;2022-11-24T05:52:15;2.20;99.90
23869;DHT22;12115;47.128;15.422;2022-11-24T05:54:42;2.10;99.90
23869;DHT22;12115;47.128;15.422;2022-11-24T05:57:09;2.10;99.90
23869;DHT22;12115;47.128;15.422;2022-11-24T05:59:36;2.10;99.90
23869;DHT22;12115;47.128;15.422;2022-11-24T06:02:03;2.10;99.90
23869;DHT22;12115;47.128;15.422;2022-11-24T06:04:30;2.20;99.90
23869;DHT22;12115;47.128;15.422;2022-11-24T06:06:58;2.20;99.90
23869;DHT22;12115;47.128;15.422;2022-11-24T06:09:25;2.20;99.90
23869;DHT22;12115;47.128;15.422;2022-11-24T06:11:52;2.20;99.90
23869;DHT22;12115;47.128;15.422;2022-11-24T06:14:19;2.20;99.90
23869;DHT22;12115;47.128;15.422;2022-11-24T06:16:46;2.30;99.90
23869;DHT22;12115;47.128;15.422;2022-11-24T06:19:13;2.30;99.90
23869;DHT22;12115;47.128;15.422;2022-11-24T06:21:41;2.30;99.90
23869;DHT22;12115;47.128;15.422;2022-11-24T06:24:08;2.30;99.90
23869;DHT22;12115;47.128;15.422;2022-11-24T06:26:35;2.30;99.90
23869;DHT22;12115;47.128;15.422;2022-11-24T06:29:02;2.30;99.90
23869;DHT22;12115;47.128;15.422;2022-11-24T06:31:29;2.30;99.90
23869;DHT22;12115;47.128;15.422;2022-11-24T06:33:56;2.40;99.90
23869;DHT22;12115;47.128;15.422;2022-11-24T06:36:23;2.30;99.90
23869;DHT22;12115;47.128;15.422;2022-11-24T06:38:51;2.40;99.90
23869;DHT22;12115;47.128;15.422;2022-11-24T06:41:18;2.40;99.90
23869;DHT22;12115;47.128;15.422;2022-11-24T06:43:46;2.30;99.90
23869;DHT22;12115;47.128;15.422;2022-11-24T06:46:13;2.40;99.90
23869;DHT22;12115;47.128;15.422;2022-11-24T06:48:40;2.40;99.90
23869;DHT22;12115;47.128;15.422;2022-11-24T06:51:09;2.40;99.90
23869;DHT22;12115;47.128;15.422;2022-11-24T06:53:39;2.40;99.90
23869;DHT22;12115;47.128;15.422;2022-11-24T06:56:12;2.40;99.90
23869;DHT22;12115;47.128;15.422;2022-11-24T06:58:44;2.40;99.90
23869;DHT22;12115;47.128;15.422;2022-11-24T07:01:20;2.40;99.90
23869;DHT22;12115;47.128;15.422;2022-11-24T07:03:48;2.40;99.90
23869;DHT22;12115;47.128;15.422;2022-11-24T07:06:16;2.40;99.90
23869;DHT22;12115;47.128;15.422;2022-11-24T07:08:43;2.30;99.90
23869;DHT22;12115;47.128;15.422;2022-11-24T07:11:14;2.40;99.90
23869;DHT22;12115;47.128;15.422;2022-11-24T07:13:42;2.40;99.90
23869;DHT22;12115;47.128;15.422;2022-11-24T07:16:20;2.40;99.90
23869;DHT22;12115;47.128;15.422;2022-11-24T07:18:51;2.50;99.90
23869;DHT22;12115;47.128;15.422;2022-11-24T07:21:21;2.50;99.90
23869;DHT22;12115;47.128;15.422;2022-11-24T07:23:55;2.50;99.90
23869;DHT22;12115;47.128;15.422;2022-11-24T07:26:26;2.60;99.90
23869;DHT22;12115;47.128;15.422;2022-11-24T07:29:03;2.60;99.90
23869;DHT22;12115;47.128;15.422;2022-11-24T07:31:32;2.70;99.90
23869;DHT22;12115;47.128;15.422;2022-11-24T07:34:04;2.70;99.90
23869;DHT22;12115;47.128;15.422;2022-11-24T07:36:34;2.70;99.90
23869;DHT22;12115;47.128;15.422;2022-11-24T07:39:11;2.70;99.90
23869;DHT22;12115;47.128;15.422;2022-11-24T07:41:46;2.80;99.90
23869;DHT22;12115;47.128;15.422;2022-11-24T07:44:17;2.90;99.90
23869;DHT22;12115;47.128;15.422;2022-11-24T07:46:47;3.20;99.90
23869;DHT22;12115;47.128;15.422;2022-11-24T07:49:20;3.40;99.90
23869;DHT22;12115;47.128;15.422;2022-11-24T07:51:50;3.80;99.90
23869;DHT22;12115;47.128;15.422;2022-11-24T07:54:22;4.80;99.90
23869;DHT22;12115;47.128;15.422;2022-11-24T07:56:49;5.20;99.90
23869;DHT22;12115;47.128;15.422;2022-11-24T07:59:16;5.00;99.90
23869;DHT22;12115;47.128;15.422;2022-11-24T08:01:43;4.90;99.90
23869;DHT22;12115;47.128;15.422;2022-11-24T08:04:10;4.70;99.90
23869;DHT22;12115;47.128;15.422;2022-11-24T08:06:37;4.60;99.90
23869;DHT22;12115;47.128;15.422;2022-11-24T08:09:13;4.50;99.90
23869;DHT22;12115;47.128;15.422;2022-11-24T08:11:39;4.40;99.90
23869;DHT22;12115;47.128;15.422;2022-11-24T08:14:07;4.50;99.90
23869;DHT22;12115;47.128;15.422;2022-11-24T08:16:34;4.70;99.90
23869;DHT22;12115;47.128;15.422;2022-11-24T08:19:01;4.70;99.90
23869;DHT22;12115;47.128;15.422;2022-11-24T08:21:28;5.20;99.90
23869;DHT22;12115;47.128;15.422;2022-11-24T08:23:56;5.10;99.90
23869;DHT22;12115;47.128;15.422;2022-11-24T08:26:23;5.60;99.90
23869;DHT22;12115;47.128;15.422;2022-11-24T08:28:56;6.70;99.90
23869;DHT22;12115;47.128;15.422;2022-11-24T08:31:25;7.80;99.90
23869;DHT22;12115;47.128;15.422;2022-11-24T08:33:59;8.50;99.90
23869;DHT22;12115;47.128;15.422;2022-11-24T08:36:27;8.90;99.90
23869;DHT22;12115;47.128;15.422;2022-11-24T08:38:56;9.50;99.90
23869;DHT22;12115;47.128;15.422;2022-11-24T08:41:24;9.50;99.90
23869;DHT22;12115;47.128;15.422;2022-11-24T08:43:52;9.80;99.90
23869;DHT22;12115;47.128;15.422;2022-11-24T08:46:19;9.80;99.90
23869;DHT22;12115;47.128;15.422;2022-11-24T08:48:48;9.80;99.90
23869;DHT22;12115;47.128;15.422;2022-11-24T08:51:21;9.90;99.90
23869;DHT22;12115;47.128;15.422;2022-11-24T08:53:53;9.90;99.90
23869;DHT22;12115;47.128;15.422;2022-11-24T08:56:21;10.00;99.90
23869;DHT22;12115;47.128;15.422;2022-11-24T08:58:49;10.10;99.90
23869;DHT22;12115;47.128;15.422;2022-11-24T09:01:16;10.20;99.90
23869;DHT22;12115;47.128;15.422;2022-11-24T09:03:46;10.20;99.90
23869;DHT22;12115;47.128;15.422;2022-11-24T09:06:22;10.00;99.90
23869;DHT22;12115;47.128;15.422;2022-11-24T09:08:52;10.00;99.90
23869;DHT22;12115;47.128;15.422;2022-11-24T09:11:20;10.50;99.90
23869;DHT22;12115;47.128;15.422;2022-11-24T09:13:47;10.70;99.90
23869;DHT22;12115;47.128;15.422;2022-11-24T09:16:17;11.10;99.90
23869;DHT22;12115;47.128;15.422;2022-11-24T09:18:45;11.10;99.90
23869;DHT22;12115;47.128;15.422;2022-11-24T09:23:50;12.50;99.90
23869;DHT22;12115;47.128;15.422;2022-11-24T09:26:26;13.40;99.90
23869;DHT22;12115;47.128;15.422;2022-11-24T09:28:54;12.20;99.90
23869;DHT22;12115;47.128;15.422;2022-11-24T09:31:27;11.50;99.90
23869;DHT22;12115;47.128;15.422;2022-11-24T09:33:55;10.90;99.90
23869;DHT22;12115;47.128;15.422;2022-11-24T09:36:22;10.60;99.90
23869;DHT22;12115;47.128;15.422;2022-11-24T09:38:50;10.40;99.90
23869;DHT22;12115;47.128;15.422;2022-11-24T09:49:15;9.80;99.90
23869;DHT22;12115;47.128;15.422;2022-11-24T09:51:45;10.00;99.90
23869;DHT22;12115;47.128;15.422;2022-11-24T09:54:18;9.90;99.90
23869;DHT22;12115;47.128;15.422;2022-11-24T09:56:48;9.80;99.90
23869;DHT22;12115;47.128;15.422;2022-11-24T09:59:22;9.70;99.90
23869;DHT22;12115;47.128;15.422;2022-11-24T10:01:50;9.90;99.90
23869;DHT22;12115;47.128;15.422;2022-11-24T10:07:00;9.70;99.90
23869;DHT22;12115;47.128;15.422;2022-11-24T10:21:01;12.10;99.90
23869;DHT22;12115;47.128;15.422;2022-11-24T10:26:44;14.20;99.90
23869;DHT22;12115;47.128;15.422;2022-11-24T10:31:51;15.40;99.90
23869;DHT22;12115;47.128;15.422;2022-11-24T10:34:38;13.60;99.90
23869;DHT22;12115;47.128;15.422;2022-11-24T10:40:35;13.30;99.90
23869;DHT22;12115;47.128;15.422;2022-11-24T10:43:20;12.60;99.90
23869;DHT22;12115;47.128;15.422;2022-11-24T10:45:48;12.80;99.90
23869;DHT22;12115;47.128;15.422;2022-11-24T10:48:26;12.40;99.90
23869;DHT22;12115;47.128;15.422;2022-11-24T10:51:17;11.70;99.90
23869;DHT22;12115;47.128;15.422;2022-11-24T10:53:47;11.90;99.90
23869;DHT22;12115;47.128;15.422;2022-11-24T10:56:14;13.00;99.90
23869;DHT22;12115;47.128;15.422;2022-11-24T10:58:41;13.50;99.90
23869;DHT22;12115;47.128;15.422;2022-11-24T11:03:52;14.50;99.90
23869;DHT22;12115;47.128;15.422;2022-11-24T11:11:34;16.10;96.50
23869;DHT22;12115;47.128;15.422;2022-11-24T11:14:06;15.90;97.50
23869;DHT22;12115;47.128;15.422;2022-11-24T11:16:53;15.80;97.30
23869;DHT22;12115;47.128;15.422;2022-11-24T11:19:41;15.30;97.00
23869;DHT22;12115;47.128;15.422;2022-11-24T11:22:26;15.00;97.40
23869;DHT22;12115;47.128;15.422;2022-11-24T11:27:31;13.10;99.90
23869;DHT22;12115;47.128;15.422;2022-11-24T11:30:31;12.80;99.90
23869;DHT22;12115;47.128;15.422;2022-11-24T11:33:23;12.40;99.90
23869;DHT22;12115;47.128;15.422;2022-11-24T11:36:10;12.40;99.90
23869;DHT22;12115;47.128;15.422;2022-11-24T11:38:39;12.50;99.90
23869;DHT22;12115;47.128;15.422;2022-11-24T11:41:16;12.50;99.90
23869;DHT22;12115;47.128;15.422;2022-11-24T11:43:46;12.60;99.90
23869;DHT22;12115;47.128;15.422;2022-11-24T11:46:16;12.60;99.90
23869;DHT22;12115;47.128;15.422;2022-11-24T11:48:44;12.40;99.90
23869;DHT22;12115;47.128;15.422;2022-11-24T12:00:10;12.20;99.90
23869;DHT22;12115;47.128;15.422;2022-11-24T12:05:29;11.90;99.90
23869;DHT22;12115;47.128;15.422;2022-11-24T12:10:45;11.80;99.90
23869;DHT22;12115;47.128;15.422;2022-11-24T12:15:57;11.80;99.90
23869;DHT22;12115;47.128;15.422;2022-11-24T12:25:16;11.70;99.90
23869;DHT22;12115;47.128;15.422;2022-11-24T12:30:22;11.80;99.90
23869;DHT22;12115;47.128;15.422;2022-11-24T12:33:10;11.70;99.90
23869;DHT22;12115;47.128;15.422;2022-11-24T12:38:30;11.50;99.90
23869;DHT22;12115;47.128;15.422;2022-11-24T12:41:23;11.40;99.90
23869;DHT22;12115;47.128;15.422;2022-11-24T12:44:41;11.40;99.90
23869;DHT22;12115;47.128;15.422;2022-11-24T12:47:20;11.40;99.90
23869;DHT22;12115;47.128;15.422;2022-11-24T12:49:57;11.40;99.90
23869;DHT22;12115;47.128;15.422;2022-11-24T12:52:31;11.30;99.90
23869;DHT22;12115;47.128;15.422;2022-11-24T12:55:00;11.20;99.90
23869;DHT22;12115;47.128;15.422;2022-11-24T12:57:54;11.10;99.90
23869;DHT22;12115;47.128;15.422;2022-11-24T13:00:26;11.10;99.90
23869;DHT22;12115;47.128;15.422;2022-11-24T13:03:22;11.20;99.90
23869;DHT22;12115;47.128;15.422;2022-11-24T13:06:09;11.20;99.90
23869;DHT22;12115;47.128;15.422;2022-11-24T13:08:39;11.10;99.90
23869;DHT22;12115;47.128;15.422;2022-11-24T13:14:15;11.20;99.90
23869;DHT22;12115;47.128;15.422;2022-11-24T13:19:40;11.20;99.90
23869;DHT22;12115;47.128;15.422;2022-11-24T13:24:36;11.20;99.90
23869;DHT22;12115;47.128;15.422;2022-11-24T13:29:43;11.20;99.90
23869;DHT22;12115;47.128;15.422;2022-11-24T13:37:43;11.20;99.90
23869;DHT22;12115;47.128;15.422;2022-11-24T13:53:34;11.10;99.90
23869;DHT22;12115;47.128;15.422;2022-11-24T13:58:38;11.00;99.90
23869;DHT22;12115;47.128;15.422;2022-11-24T14:01:31;10.90;99.90
23869;DHT22;12115;47.128;15.422;2022-11-24T14:04:20;10.90;99.90
23869;DHT22;12115;47.128;15.422;2022-11-24T14:07:01;10.80;99.90
23869;DHT22;12115;47.128;15.422;2022-11-24T14:09:41;10.70;99.90
23869;DHT22;12115;47.128;15.422;2022-11-24T14:12:21;10.70;99.90
23869;DHT22;12115;47.128;15.422;2022-11-24T14:14:50;10.60;99.90
23869;DHT22;12115;47.128;15.422;2022-11-24T14:17:21;10.50;99.90
23869;DHT22;12115;47.128;15.422;2022-11-24T14:19:54;10.40;99.90
23869;DHT22;12115;47.128;15.422;2022-11-24T14:22:34;10.30;99.90
23869;DHT22;12115;47.128;15.422;2022-11-24T14:25:02;10.30;99.90
23869;DHT22;12115;47.128;15.422;2022-11-24T14:27:33;10.20;99.90
23869;DHT22;12115;47.128;15.422;2022-11-24T14:32:34;10.10;99.90
23869;DHT22;12115;47.128;15.422;2022-11-24T14:35:01;10.10;99.90
23869;DHT22;12115;47.128;15.422;2022-11-24T14:37:28;10.10;99.90
23869;DHT22;12115;47.128;15.422;2022-11-24T14:39:55;10.00;99.90
23869;DHT22;12115;47.128;15.422;2022-11-24T14:42:24;10.00;99.90
23869;DHT22;12115;47.128;15.422;2022-11-24T14:45:00;10.00;99.90
23869;DHT22;12115;47.128;15.422;2022-11-24T14:47:30;10.00;99.90
23869;DHT22;12115;47.128;15.422;2022-11-24T14:50:10;10.00;99.90
23869;DHT22;12115;47.128;15.422;2022-11-24T14:52:52;9.90;99.90
23869;DHT22;12115;47.128;15.422;2022-11-24T14:57:53;9.80;99.90
23869;DHT22;12115;47.128;15.422;2022-11-24T15:02:55;9.80;99.90
23869;DHT22;12115;47.128;15.422;2022-11-24T15:05:54;9.70;99.90
23869;DHT22;12115;47.128;15.422;2022-11-24T15:08:23;9.50;99.90
23869;DHT22;12115;47.128;15.422;2022-11-24T15:10:59;9.50;99.90
23869;DHT22;12115;47.128;15.422;2022-11-24T15:13:28;9.50;99.90
23869;DHT22;12115;47.128;15.422;2022-11-24T15:15:58;9.50;99.90
23869;DHT22;12115;47.128;15.422;2022-11-24T15:21:02;9.50;99.90
23869;DHT22;12115;47.128;15.422;2022-11-24T15:23:33;9.30;99.90
23869;DHT22;12115;47.128;15.422;2022-11-24T15:28:29;9.20;99.90
23869;DHT22;12115;47.128;15.422;2022-11-24T15:33:29;9.00;99.90
23869;DHT22;12115;47.128;15.422;2022-11-24T15:35:56;8.90;99.90
23869;DHT22;12115;47.128;15.422;2022-11-24T15:38:24;8.80;99.90
23869;DHT22;12115;47.128;15.422;2022-11-24T15:40:53;8.70;99.90
23869;DHT22;12115;47.128;15.422;2022-11-24T15:43:31;8.40;99.90
23869;DHT22;12115;47.128;15.422;2022-11-24T15:46:00;8.50;99.90
23869;DHT22;12115;47.128;15.422;2022-11-24T15:48:28;8.40;99.90
23869;DHT22;12115;47.128;15.422;2022-11-24T15:50:56;8.30;99.90
23869;DHT22;12115;47.128;15.422;2022-11-24T15:53:29;8.20;99.90
23869;DHT22;12115;47.128;15.422;2022-11-24T15:55:58;8.10;99.90
23869;DHT22;12115;47.128;15.422;2022-11-24T15:58:26;7.90;99.90
23869;DHT22;12115;47.128;15.422;2022-11-24T16:00:53;7.80;99.90
23869;DHT22;12115;47.128;15.422;2022-11-24T16:03:20;7.80;99.90
23869;DHT22;12115;47.128;15.422;2022-11-24T16:06:11;7.80;99.90
23869;DHT22;12115;47.128;15.422;2022-11-24T16:08:49;7.80;99.90
23869;DHT22;12115;47.128;15.422;2022-11-24T16:11:16;7.70;99.90
23869;DHT22;12115;47.128;15.422;2022-11-24T16:13:43;7.80;99.90
23869;DHT22;12115;47.128;15.422;2022-11-24T16:16:18;7.60;99.90
23869;DHT22;12115;47.128;15.422;2022-11-24T16:18:45;7.60;99.90
23869;DHT22;12115;47.128;15.422;2022-11-24T16:21:12;7.50;99.90
23869;DHT22;12115;47.128;15.422;2022-11-24T16:23:40;7.40;99.90
23869;DHT22;12115;47.128;15.422;2022-11-24T16:26:09;7.30;99.90
23869;DHT22;12115;47.128;15.422;2022-11-24T16:28:36;7.20;99.90
23869;DHT22;12115;47.128;15.422;2022-11-24T16:31:03;7.10;99.90
23869;DHT22;12115;47.128;15.422;2022-11-24T16:33:31;7.10;99.90
23869;DHT22;12115;47.128;15.422;2022-11-24T16:35:58;7.10;99.90
23869;DHT22;12115;47.128;15.422;2022-11-24T16:38:26;7.10;99.90
23869;DHT22;12115;47.128;15.422;2022-11-24T16:40:53;7.00;99.90
23869;DHT22;12115;47.128;15.422;2022-11-24T16:43:22;6.90;99.90
23869;DHT22;12115;47.128;15.422;2022-11-24T16:46:20;7.00;99.90
23869;DHT22;12115;47.128;15.422;2022-11-24T16:48:50;6.90;99.90
23869;DHT22;12115;47.128;15.422;2022-11-24T16:51:19;6.80;99.90
23869;DHT22;12115;47.128;15.422;2022-11-24T16:53:48;6.70;99.90
23869;DHT22;12115;47.128;15.422;2022-11-24T16:56:22;6.70;99.90
23869;DHT22;12115;47.128;15.422;2022-11-24T16:58:49;6.60;99.90
23869;DHT22;12115;47.128;15.422;2022-11-24T17:01:17;6.60;99.90
23869;DHT22;12115;47.128;15.422;2022-11-24T17:03:44;6.60;99.90
23869;DHT22;12115;47.128;15.422;2022-11-24T17:06:13;6.60;99.90
23869;DHT22;12115;47.128;15.422;2022-11-24T17:08:45;6.60;99.90
23869;DHT22;12115;47.128;15.422;2022-11-24T17:11:20;6.60;99.90
23869;DHT22;12115;47.128;15.422;2022-11-24T17:13:47;6.50;99.90
23869;DHT22;12115;47.128;15.422;2022-11-24T17:16:20;6.40;99.90
23869;DHT22;12115;47.128;15.422;2022-11-24T17:18:49;6.40;99.90
23869;DHT22;12115;47.128;15.422;2022-11-24T17:21:21;6.40;99.90
23869;DHT22;12115;47.128;15.422;2022-11-24T17:24:01;6.30;99.90
23869;DHT22;12115;47.128;15.422;2022-11-24T17:26:32;6.30;99.90
23869;DHT22;12115;47.128;15.422;2022-11-24T17:28:59;6.20;99.90
23869;DHT22;12115;47.128;15.422;2022-11-24T17:31:30;6.20;99.90
23869;DHT22;12115;47.128;15.422;2022-11-24T17:33:59;6.20;99.90
23869;DHT22;12115;47.128;15.422;2022-11-24T17:36:32;6.10;99.90
23869;DHT22;12115;47.128;15.422;2022-11-24T17:39:04;6.10;99.90
23869;DHT22;12115;47.128;15.422;2022-11-24T17:41:34;6.10;99.90
23869;DHT22;12115;47.128;15.422;2022-11-24T17:44:02;6.10;99.90
23869;DHT22;12115;47.128;15.422;2022-11-24T17:46:31;6.00;99.90
23869;DHT22;12115;47.128;15.422;2022-11-24T17:48:59;5.90;99.90
23869;DHT22;12115;47.128;15.422;2022-11-24T17:51:27;5.90;99.90
23869;DHT22;12115;47.128;15.422;2022-11-24T17:53:55;5.90;99.90
23869;DHT22;12115;47.128;15.422;2022-11-24T17:56:25;5.90;99.90
23869;DHT22;12115;47.128;15.422;2022-11-24T17:58:57;5.80;99.90
23869;DHT22;12115;47.128;15.422;2022-11-24T18:01:26;5.80;99.90